ANZ515 NZWN-NZNS
Flight info
| Callsign | ANZ515 |
|---|---|
| Flight time | 0h 29m |
| Altitude | 14000 |
| Route | LUBSI |
| Aircraft | A21N/M-SDE2E3FGHIRWXY/LB1 |
Departure
| Time | 2026-04-20 19:24 |
|---|---|
| Airport | Wellington International Airport (NZWN) |
Arrival
| Time | 2026-04-20 19:53 |
|---|---|
| Airport | Nelson Airport (NZNS) |
| Time | Latitude | Longitude | Altitude | Speed | Heading |
|---|---|---|---|---|---|
| 2026-04-20 19:13 | -41.32882 | 174.81043 | 29 ft | 0 kts | 31° |
| 2026-04-20 19:18 | -41.32889 | 174.81036 | 29 ft | 4 kts | 23° |
| 2026-04-20 19:18 | -41.32910 | 174.81033 | 29 ft | 4 kts | 316° |
| 2026-04-20 19:18 | -41.32917 | 174.81050 | 29 ft | 1 kts | 272° |
| 2026-04-20 19:19 | -41.32917 | 174.81052 | 29 ft | 0 kts | 272° |
| 2026-04-20 19:20 | -41.32917 | 174.81049 | 29 ft | 3 kts | 272° |
| 2026-04-20 19:21 | -41.32914 | 174.80955 | 29 ft | 3 kts | 272° |
| 2026-04-20 19:21 | -41.32899 | 174.80898 | 29 ft | 9 kts | 312° |
| 2026-04-20 19:21 | -41.32816 | 174.80886 | 29 ft | 19 kts | 2° |
| 2026-04-20 19:21 | -41.32726 | 174.80856 | 29 ft | 13 kts | 303° |
| 2026-04-20 19:22 | -41.32627 | 174.80820 | 30 ft | 21 kts | 4° |
| 2026-04-20 19:22 | -41.32439 | 174.80834 | 37 ft | 34 kts | 3° |
| 2026-04-20 19:22 | -41.32176 | 174.80853 | 47 ft | 39 kts | 3° |
| 2026-04-20 19:22 | -41.32079 | 174.80860 | 48 ft | 25 kts | 3° |
| 2026-04-20 19:23 | -41.31975 | 174.80867 | 49 ft | 15 kts | 2° |
| 2026-04-20 19:23 | -41.31901 | 174.80833 | 54 ft | 12 kts | 296° |
| 2026-04-20 19:23 | -41.31957 | 174.80742 | 54 ft | 18 kts | 186° |
| 2026-04-20 19:23 | -41.32173 | 174.80725 | 47 ft | 58 kts | 183° |
| 2026-04-20 19:24 | -41.32869 | 174.80674 | 54 ft | 135 kts | 182° |
| 2026-04-20 19:24 | -41.33861 | 174.80635 | 683 ft | 148 kts | 181° |
| 2026-04-20 19:24 | -41.34926 | 174.80659 | 1551 ft | 158 kts | 176° |
| 2026-04-20 19:24 | -41.36063 | 174.80639 | 2358 ft | 165 kts | 179° |
| 2026-04-20 19:25 | -41.37192 | 174.80372 | 3275 ft | 167 kts | 192° |
| 2026-04-20 19:25 | -41.38179 | 174.79441 | 4039 ft | 189 kts | 221° |
| 2026-04-20 19:25 | -41.38743 | 174.77749 | 4761 ft | 205 kts | 236° |
| 2026-04-20 19:25 | -41.39423 | 174.76139 | 5496 ft | 199 kts | 224° |
| 2026-04-20 19:26 | -41.40221 | 174.74606 | 6167 ft | 204 kts | 222° |
| 2026-04-20 19:26 | -41.41078 | 174.73059 | 6842 ft | 210 kts | 223° |
| 2026-04-20 19:26 | -41.41875 | 174.71357 | 7472 ft | 229 kts | 237° |
| 2026-04-20 19:26 | -41.42234 | 174.69154 | 7921 ft | 258 kts | 256° |
| 2026-04-20 19:27 | -41.42373 | 174.66633 | 8211 ft | 286 kts | 258° |
| 2026-04-20 19:27 | -41.42469 | 174.63919 | 8827 ft | 295 kts | 263° |
| 2026-04-20 19:27 | -41.42559 | 174.61187 | 9640 ft | 300 kts | 262° |
| 2026-04-20 19:27 | -41.42665 | 174.58391 | 10455 ft | 298 kts | 264° |
| 2026-04-20 19:28 | -41.42773 | 174.55637 | 11273 ft | 301 kts | 263° |
| 2026-04-20 19:28 | -41.42896 | 174.52797 | 11917 ft | 307 kts | 264° |
| 2026-04-20 19:28 | -41.43018 | 174.49967 | 12789 ft | 309 kts | 262° |
| 2026-04-20 19:28 | -41.43148 | 174.47064 | 13423 ft | 316 kts | 262° |
| 2026-04-20 19:29 | -41.43273 | 174.44175 | 14285 ft | 312 kts | 263° |
| 2026-04-20 19:29 | -41.43401 | 174.41259 | 14768 ft | 317 kts | 264° |
| 2026-04-20 19:29 | -41.43528 | 174.38330 | 14878 ft | 319 kts | 261° |
| 2026-04-20 19:29 | -41.43660 | 174.35353 | 14708 ft | 322 kts | 262° |
| 2026-04-20 19:30 | -41.43788 | 174.32356 | 14461 ft | 326 kts | 263° |
| 2026-04-20 19:30 | -41.43919 | 174.29341 | 14212 ft | 323 kts | 261° |
| 2026-04-20 19:30 | -41.44047 | 174.26370 | 14008 ft | 318 kts | 264° |
| 2026-04-20 19:30 | -41.44171 | 174.23452 | 13967 ft | 314 kts | 264° |
| 2026-04-20 19:31 | -41.44294 | 174.20545 | 13984 ft | 314 kts | 264° |
| 2026-04-20 19:31 | -41.44416 | 174.17645 | 13966 ft | 315 kts | 262° |
| 2026-04-20 19:31 | -41.44541 | 174.14713 | 13982 ft | 317 kts | 263° |
| 2026-04-20 19:31 | -41.44663 | 174.11794 | 13963 ft | 315 kts | 263° |
| 2026-04-20 19:32 | -41.44784 | 174.08901 | 13684 ft | 311 kts | 264° |
| 2026-04-20 19:32 | -41.44900 | 174.06042 | 13110 ft | 308 kts | 262° |
| 2026-04-20 19:32 | -41.45019 | 174.03166 | 12358 ft | 313 kts | 264° |
| 2026-04-20 19:32 | -41.45139 | 174.00260 | 11733 ft | 314 kts | 262° |
| 2026-04-20 19:33 | -41.45257 | 173.97347 | 11103 ft | 316 kts | 263° |
| 2026-04-20 19:33 | -41.45372 | 173.94495 | 10653 ft | 311 kts | 264° |
| 2026-04-20 19:33 | -41.45485 | 173.91643 | 10256 ft | 304 kts | 264° |
| 2026-04-20 19:33 | -41.45596 | 173.88844 | 9713 ft | 305 kts | 265° |
| 2026-04-20 19:34 | -41.45708 | 173.86002 | 9159 ft | 306 kts | 264° |
| 2026-04-20 19:34 | -41.45817 | 173.83180 | 8719 ft | 303 kts | 263° |
| 2026-04-20 19:34 | -41.45924 | 173.80387 | 8299 ft | 300 kts | 262° |
| 2026-04-20 19:34 | -41.46030 | 173.77629 | 7875 ft | 296 kts | 262° |
| 2026-04-20 19:35 | -41.46134 | 173.74912 | 7493 ft | 292 kts | 261° |
| 2026-04-20 19:35 | -41.46223 | 173.72227 | 7175 ft | 288 kts | 262° |
| 2026-04-20 19:35 | -41.46096 | 173.69549 | 7060 ft | 294 kts | 274° |
| 2026-04-20 19:35 | -41.45538 | 173.66896 | 7053 ft | 301 kts | 285° |
| 2026-04-20 19:36 | -41.44725 | 173.64318 | 7051 ft | 303 kts | 289° |
| 2026-04-20 19:36 | -41.43876 | 173.61743 | 7067 ft | 303 kts | 289° |
| 2026-04-20 19:36 | -41.43006 | 173.59184 | 7038 ft | 303 kts | 290° |
| 2026-04-20 19:36 | -41.42126 | 173.56630 | 7036 ft | 303 kts | 289° |
| 2026-04-20 19:37 | -41.41267 | 173.54069 | 7054 ft | 303 kts | 289° |
| 2026-04-20 19:37 | -41.40417 | 173.51520 | 7040 ft | 302 kts | 290° |
| 2026-04-20 19:37 | -41.39562 | 173.48958 | 7043 ft | 302 kts | 291° |
| 2026-04-20 19:37 | -41.38672 | 173.46427 | 7036 ft | 302 kts | 291° |
| 2026-04-20 19:38 | -41.37814 | 173.43875 | 7044 ft | 302 kts | 290° |
| 2026-04-20 19:38 | -41.36976 | 173.41301 | 7053 ft | 303 kts | 291° |
| 2026-04-20 19:38 | -41.36127 | 173.38731 | 7036 ft | 303 kts | 291° |
| 2026-04-20 19:38 | -41.35271 | 173.36162 | 7039 ft | 304 kts | 291° |
| 2026-04-20 19:39 | -41.34411 | 173.33595 | 6997 ft | 304 kts | 291° |
| 2026-04-20 19:39 | -41.33554 | 173.31033 | 7047 ft | 303 kts | 291° |
| 2026-04-20 19:39 | -41.32708 | 173.28473 | 7039 ft | 302 kts | 291° |
| 2026-04-20 19:39 | -41.31841 | 173.25922 | 7031 ft | 302 kts | 292° |
| 2026-04-20 19:40 | -41.30968 | 173.23371 | 7030 ft | 303 kts | 292° |
| 2026-04-20 19:40 | -41.29806 | 173.21040 | 7035 ft | 305 kts | 315° |
| 2026-04-20 19:40 | -41.28233 | 173.19209 | 7032 ft | 305 kts | 321° |
| 2026-04-20 19:40 | -41.26540 | 173.17435 | 7033 ft | 306 kts | 322° |
| 2026-04-20 19:41 | -41.24944 | 173.15628 | 7017 ft | 306 kts | 309° |
| 2026-04-20 19:41 | -41.24033 | 173.13148 | 7032 ft | 297 kts | 276° |
| 2026-04-20 19:41 | -41.24205 | 173.10511 | 7034 ft | 283 kts | 242° |
| 2026-04-20 19:41 | -41.25343 | 173.08503 | 7042 ft | 269 kts | 213° |
| 2026-04-20 19:42 | -41.26848 | 173.07012 | 6971 ft | 271 kts | 211° |
| 2026-04-20 19:42 | -41.28311 | 173.05420 | 6549 ft | 273 kts | 216° |
| 2026-04-20 19:42 | -41.29646 | 173.03634 | 6139 ft | 272 kts | 221° |
| 2026-04-20 19:42 | -41.30897 | 173.01775 | 5749 ft | 268 kts | 222° |
| 2026-04-20 19:43 | -41.32119 | 172.99916 | 5325 ft | 265 kts | 223° |
| 2026-04-20 19:43 | -41.33319 | 172.98078 | 4926 ft | 261 kts | 222° |
| 2026-04-20 19:43 | -41.34688 | 172.96574 | 4488 ft | 252 kts | 204° |
| 2026-04-20 19:43 | -41.36323 | 172.95883 | 4078 ft | 244 kts | 186° |
| 2026-04-20 19:44 | -41.37968 | 172.95765 | 3952 ft | 230 kts | 175° |
| 2026-04-20 19:44 | -41.39451 | 172.96237 | 3955 ft | 211 kts | 155° |
| 2026-04-20 19:44 | -41.40617 | 172.97331 | 3956 ft | 205 kts | 135° |
| 2026-04-20 19:44 | -41.41391 | 172.98940 | 3951 ft | 210 kts | 113° |
| 2026-04-20 19:45 | -41.41503 | 172.99387 | 3950 ft | 211 kts | 108° |
| 2026-04-20 19:48 | -41.41554 | 172.99653 | 3951 ft | 212 kts | 104° |
| 2026-04-20 19:48 | -41.41574 | 173.01612 | 3971 ft | 209 kts | 82° |
| 2026-04-20 19:49 | -41.41080 | 173.03326 | 3920 ft | 190 kts | 66° |
| 2026-04-20 19:49 | -41.40407 | 173.04834 | 3446 ft | 191 kts | 62° |
| 2026-04-20 19:49 | -41.39687 | 173.06344 | 2895 ft | 195 kts | 60° |
| 2026-04-20 19:49 | -41.38963 | 173.07856 | 2587 ft | 193 kts | 59° |
| 2026-04-20 19:50 | -41.38252 | 173.09348 | 2493 ft | 186 kts | 59° |
| 2026-04-20 19:50 | -41.37588 | 173.10751 | 2203 ft | 177 kts | 59° |
| 2026-04-20 19:50 | -41.36912 | 173.12099 | 1826 ft | 173 kts | 53° |
| 2026-04-20 19:50 | -41.36153 | 173.13310 | 1564 ft | 167 kts | 48° |
| 2026-04-20 19:51 | -41.35412 | 173.14416 | 1428 ft | 155 kts | 48° |
| 2026-04-20 19:51 | -41.34699 | 173.15471 | 1117 ft | 150 kts | 48° |
| 2026-04-20 19:51 | -41.34005 | 173.16497 | 968 ft | 149 kts | 51° |
| 2026-04-20 19:51 | -41.33318 | 173.17515 | 876 ft | 148 kts | 50° |
| 2026-04-20 19:52 | -41.32653 | 173.18574 | 517 ft | 146 kts | 54° |
| 2026-04-20 19:52 | -41.32053 | 173.19582 | 356 ft | 138 kts | 49° |
| 2026-04-20 19:52 | -41.31370 | 173.20481 | 227 ft | 139 kts | 40° |
| 2026-04-20 19:52 | -41.30639 | 173.21327 | 114 ft | 139 kts | 38° |
| 2026-04-20 19:53 | -41.29903 | 173.22169 | 33 ft | 131 kts | 40° |
| 2026-04-20 19:53 | -41.29398 | 173.22744 | 35 ft | 45 kts | 39° |
| 2026-04-20 19:53 | -41.29341 | 173.22809 | 35 ft | 0 kts | 41° |
| 2026-04-20 19:53 | -41.29339 | 173.22811 | 35 ft | 4 kts | 41° |
| 2026-04-20 19:54 | -41.29263 | 173.22916 | 35 ft | 11 kts | 69° |
| 2026-04-20 19:54 | -41.29286 | 173.23003 | 35 ft | 15 kts | 147° |
| 2026-04-20 19:54 | -41.29399 | 173.22957 | 35 ft | 28 kts | 231° |
| 2026-04-20 19:54 | -41.29530 | 173.22812 | 35 ft | 22 kts | 218° |
| 2026-04-20 19:55 | -41.29582 | 173.22678 | 35 ft | 19 kts | 246° |
| 2026-04-20 19:55 | -41.29712 | 173.22545 | 33 ft | 27 kts | 204° |
| 2026-04-20 19:55 | -41.29838 | 173.22454 | 35 ft | 10 kts | 226° |
| 2026-04-20 19:55 | -41.29872 | 173.22448 | 35 ft | 9 kts | 149° |
| 2026-04-20 19:56 | -41.29892 | 173.22500 | 34 ft | 6 kts | 98° |
| 2026-04-20 19:56 | -41.29892 | 173.22501 | 34 ft | 0 kts | 98° |